Time;durP1;ratioP1;P1;durP2;ratioP2;P2;SDS_P1;SDS_P2;PMS_P1;PMS_P2;Temp;Humidity;BMP_temperature;BMP_pressure;BME280_temperature;BME280_humidity;BME280_pressure;Samples;Min_cycle;Max_cycle;Signal;HPM_P1;HPM_P2
2022/11/16 00:00:24;;;;;;;2.05;1.52;;;;;;;;;;5085122;28;20067;-77
2022/11/16 00:02:53;;;;;;;1.60;1.50;;;;;;;;;;5086156;28;20104;-77
2022/11/16 00:05:20;;;;;;;1.75;1.60;;;;;;;;;;5065443;28;20390;-78
2022/11/16 00:07:50;;;;;;;2.65;1.70;;;;;;;;;;5089139;28;20040;-77
2022/11/16 00:10:16;;;;;;;1.70;1.60;;;;;;;;;;5084510;28;20035;-77
2022/11/16 00:12:43;;;;;;;2.33;1.70;;;;;;;;;;5067711;28;20107;-77
2022/11/16 00:15:09;;;;;;;3.50;2.00;;;;;;;;;;5086921;28;20103;-78
2022/11/16 00:17:35;;;;;;;7.97;3.60;;;;;;;;;;5088716;28;20028;-77
2022/11/16 00:20:01;;;;;;;2.00;1.80;;;;;;;;;;5087610;28;20119;-77
2022/11/16 00:22:27;;;;;;;2.13;1.90;;;;;;;;;;5074747;28;20020;-77
2022/11/16 00:24:53;;;;;;;1.92;1.80;;;;;;;;;;5092698;28;20107;-77
2022/11/16 00:27:19;;;;;;;2.13;1.60;;;;;;;;;;5067712;28;20035;-77
2022/11/16 00:29:45;;;;;;;1.95;1.50;;;;;;;;;;5086243;28;20115;-77
2022/11/16 00:32:11;;;;;;;2.20;1.52;;;;;;;;;;5091071;28;20047;-77
2022/11/16 00:34:38;;;;;;;1.60;1.50;;;;;;;;;;5085202;28;20012;-77
2022/11/16 00:37:05;;;;;;;1.95;1.80;;;;;;;;;;5088615;28;20627;-78
2022/11/16 00:39:31;;;;;;;1.75;1.65;;;;;;;;;;5060970;28;20526;-77
2022/11/16 00:41:57;;;;;;;2.55;1.80;;;;;;;;;;5087136;28;20031;-78
2022/11/16 00:44:23;;;;;;;4.38;2.10;;;;;;;;;;5087087;28;20107;-77
2022/11/16 00:46:49;;;;;;;1.88;1.77;;;;;;;;;;5065101;28;20056;-77
2022/11/16 00:49:15;;;;;;;2.40;1.73;;;;;;;;;;5080058;28;20489;-77
2022/11/16 00:51:41;;;;;;;1.70;1.60;;;;;;;;;;5088389;28;20032;-77
2022/11/16 00:54:08;;;;;;;2.72;1.90;;;;;;;;;;5089653;28;20527;-77
2022/11/16 00:56:34;;;;;;;5.57;3.53;;;;;;;;;;5091673;28;20024;-77
2022/11/16 00:59:00;;;;;;;7.85;4.60;;;;;;;;;;5091316;28;20051;-76
2022/11/16 01:01:26;;;;;;;6.97;3.88;;;;;;;;;;5091667;28;20478;-77
2022/11/16 01:03:52;;;;;;;6.88;3.00;;;;;;;;;;5092688;28;20075;-77
2022/11/16 01:06:19;;;;;;;12.93;6.38;;;;;;;;;;5090452;28;20036;-78
2022/11/16 01:08:45;;;;;;;6.10;3.97;;;;;;;;;;5092877;28;20044;-77
2022/11/16 01:14:02;;;;;;;18.27;10.45;;;;;;;;;;5092811;28;20031;-78
2022/11/16 01:16:28;;;;;;;10.85;6.43;;;;;;;;;;5087581;28;20051;-77
2022/11/16 01:18:54;;;;;;;10.23;6.80;;;;;;;;;;5090414;28;20085;-77
2022/11/16 01:21:21;;;;;;;2.97;2.50;;;;;;;;;;5085490;28;20044;-78
2022/11/16 01:23:47;;;;;;;17.02;9.05;;;;;;;;;;5089234;28;20115;-77
2022/11/16 01:26:14;;;;;;;13.25;7.53;;;;;;;;;;5093936;28;20020;-77
2022/11/16 01:28:41;;;;;;;8.23;3.40;;;;;;;;;;5076489;28;20085;-77
2022/11/16 01:31:08;;;;;;;9.07;4.72;;;;;;;;;;5089830;28;20044;-76
2022/11/16 01:33:34;;;;;;;3.42;1.90;;;;;;;;;;5089165;28;20024;-76
2022/11/16 01:36:00;;;;;;;1.48;1.38;;;;;;;;;;5088582;28;20028;-77
2022/11/16 01:38:26;;;;;;;2.85;2.00;;;;;;;;;;5090340;28;20141;-77
2022/11/16 01:40:52;;;;;;;1.77;1.67;;;;;;;;;;5088892;28;20028;-77
2022/11/16 01:43:20;;;;;;;2.17;1.92;;;;;;;;;;5087814;28;20158;-77
2022/11/16 01:45:46;;;;;;;1.50;1.40;;;;;;;;;;5083552;28;20101;-77
2022/11/16 01:48:14;;;;;;;1.30;1.30;;;;;;;;;;5089087;28;20024;-77
2022/11/16 01:50:40;;;;;;;2.15;1.50;;;;;;;;;;5084199;28;20039;-77
2022/11/16 01:53:08;;;;;;;2.40;1.63;;;;;;;;;;5086330;28;20068;-77
2022/11/16 01:55:35;;;;;;;2.72;1.88;;;;;;;;;;5090110;28;20449;-76
2022/11/16 01:58:02;;;;;;;7.18;4.75;;;;;;;;;;5083177;28;20490;-77
2022/11/16 02:00:28;;;;;;;3.53;2.42;;;;;;;;;;5085705;28;20099;-76
2022/11/16 02:02:54;;;;;;;3.00;2.40;;;;;;;;;;5088798;28;20032;-77
2022/11/16 02:05:24;;;;;;;1.60;1.50;;;;;;;;;;5079265;28;20146;-76
2022/11/16 02:10:56;;;;;;;1.30;1.30;;;;;;;;;;5089340;28;20036;-77
2022/11/16 02:13:34;;;;;;;1.33;1.23;;;;;;;;;;5038986;28;20058;-77
2022/11/16 02:16:13;;;;;;;1.20;1.20;;;;;;;;;;5088115;28;20025;-78
2022/11/16 02:18:42;;;;;;;1.25;1.25;;;;;;;;;;5085200;28;20032;-76
2022/11/16 02:21:27;;;;;;;1.20;1.20;;;;;;;;;;5089739;28;20100;-77
2022/11/16 02:24:08;;;;;;;1.52;1.40;;;;;;;;;;5077138;28;20586;-77
2022/11/16 02:26:35;;;;;;;1.67;1.20;;;;;;;;;;5090541;28;20044;-76
2022/11/16 02:29:21;;;;;;;1.38;1.27;;;;;;;;;;5083073;28;20040;-77
2022/11/16 02:31:52;;;;;;;1.35;1.27;;;;;;;;;;5086267;28;20043;-76
2022/11/16 02:34:20;;;;;;;2.10;1.40;;;;;;;;;;5069877;28;20031;-77
2022/11/16 02:36:49;;;;;;;2.10;1.40;;;;;;;;;;5086721;28;20482;-77
2022/11/16 02:39:17;;;;;;;2.50;1.60;;;;;;;;;;5087167;28;20020;-77
2022/11/16 02:41:45;;;;;;;1.50;1.40;;;;;;;;;;5082024;28;20059;-77
2022/11/16 02:44:17;;;;;;;1.70;1.60;;;;;;;;;;5086492;28;20063;-77
2022/11/16 02:46:45;;;;;;;1.10;1.10;;;;;;;;;;5094344;28;20032;-77
2022/11/16 02:49:13;;;;;;;3.38;1.55;;;;;;;;;;5088634;28;20057;-76
2022/11/16 02:51:40;;;;;;;1.55;1.38;;;;;;;;;;5087597;28;20039;-77
2022/11/16 02:54:11;;;;;;;1.42;1.33;;;;;;;;;;5087213;28;20043;-77
2022/11/16 02:56:56;;;;;;;1.67;1.40;;;;;;;;;;5084920;28;20527;-77
2022/11/16 02:59:23;;;;;;;1.58;1.48;;;;;;;;;;5088514;28;20486;-77
2022/11/16 03:02:01;;;;;;;1.73;1.20;;;;;;;;;;5090016;28;20039;-76
2022/11/16 03:04:29;;;;;;;1.25;1.25;;;;;;;;;;5086293;28;20032;-76
2022/11/16 03:06:56;;;;;;;1.25;1.25;;;;;;;;;;5093100;28;20053;-77
2022/11/16 03:09:26;;;;;;;1.17;1.17;;;;;;;;;;5089536;28;20031;-78
2022/11/16 03:12:01;;;;;;;1.33;1.33;;;;;;;;;;5089785;28;20028;-77
2022/11/16 03:14:30;;;;;;;1.40;1.30;;;;;;;;;;5064763;28;20424;-77
2022/11/16 03:16:57;;;;;;;1.10;1.10;;;;;;;;;;5088483;28;20020;-77
2022/11/16 03:19:35;;;;;;;24.10;1.95;;;;;;;;;;5084652;28;20093;-77
2022/11/16 03:22:10;;;;;;;1.20;1.20;;;;;;;;;;5085925;28;20464;-77
2022/11/16 03:24:36;;;;;;;4.20;1.40;;;;;;;;;;5081032;28;20047;-77
2022/11/16 03:27:08;;;;;;;1.85;1.40;;;;;;;;;;5077435;28;20271;-77
2022/11/16 03:30:07;;;;;;;1.20;1.20;;;;;;;;;;5084551;28;20028;-77
2022/11/16 03:32:37;;;;;;;1.35;1.30;;;;;;;;;;5017087;28;20619;-76
2022/11/16 03:35:07;;;;;;;1.10;1.10;;;;;;;;;;5086571;28;20028;-77
2022/11/16 03:37:34;;;;;;;1.95;1.40;;;;;;;;;;5088023;28;20035;-77
2022/11/16 03:40:02;;;;;;;1.30;1.30;;;;;;;;;;5079700;28;20030;-76
2022/11/16 03:42:28;;;;;;;2.08;1.50;;;;;;;;;;5088192;28;20047;-77
2022/11/16 03:44:54;;;;;;;1.40;1.40;;;;;;;;;;5089885;28;20016;-77
2022/11/16 03:47:20;;;;;;;3.10;1.20;;;;;;;;;;5081757;28;20077;-76
2022/11/16 03:49:47;;;;;;;1.40;1.30;;;;;;;;;;5082999;28;20020;-77
2022/11/16 03:52:14;;;;;;;1.48;1.38;;;;;;;;;;5086744;28;20036;-77
2022/11/16 03:54:40;;;;;;;4.00;3.35;;;;;;;;;;5078240;28;20012;-75
2022/11/16 03:57:06;;;;;;;1.98;1.75;;;;;;;;;;5086243;28;20156;-76
2022/11/16 03:59:32;;;;;;;1.77;1.67;;;;;;;;;;5085286;28;20032;-77
2022/11/16 04:01:58;;;;;;;2.53;1.63;;;;;;;;;;5066759;28;20063;-76
2022/11/16 04:29:16;;;;;;;2.08;1.63;;;;;;;;;;5048265;28;20036;-77
2022/11/16 04:39:59;;;;;;;1.50;1.50;;;;;;;;;;5091397;28;20039;-76
2022/11/16 04:42:25;;;;;;;2.85;1.48;;;;;;;;;;5086607;28;20035;-77
2022/11/16 04:47:36;;;;;;;1.33;1.23;;;;;;;;;;5088404;28;20109;-78
2022/11/16 04:50:02;;;;;;;1.33;1.25;;;;;;;;;;5090331;28;20024;-77
2022/11/16 04:52:29;;;;;;;1.95;1.35;;;;;;;;;;5072726;28;20024;-77
2022/11/16 04:54:55;;;;;;;1.42;1.33;;;;;;;;;;5090103;28;20293;-77
2022/11/16 04:57:21;;;;;;;2.47;1.60;;;;;;;;;;5083339;28;20033;-77
2022/11/16 04:59:47;;;;;;;2.63;1.60;;;;;;;;;;5063295;28;20075;-77
2022/11/16 05:02:14;;;;;;;1.98;1.60;;;;;;;;;;5093368;28;20036;-77
2022/11/16 05:04:41;;;;;;;1.63;1.52;;;;;;;;;;5070427;28;20437;-77
2022/11/16 05:07:09;;;;;;;2.40;2.20;;;;;;;;;;5072295;28;20401;-77
2022/11/16 05:09:42;;;;;;;2.00;1.80;;;;;;;;;;5088190;28;20049;-76
2022/11/16 05:12:16;;;;;;;2.03;1.60;;;;;;;;;;5088931;28;20035;-77
2022/11/16 05:14:43;;;;;;;1.83;1.63;;;;;;;;;;5089116;28;20473;-77
2022/11/16 05:17:09;;;;;;;2.08;1.60;;;;;;;;;;5087710;28;20031;-78
2022/11/16 05:22:20;;;;;;;2.67;1.70;;;;;;;;;;5086918;28;20047;-77
2022/11/16 05:24:46;;;;;;;2.22;2.03;;;;;;;;;;5088527;28;20024;-77
2022/11/16 05:27:13;;;;;;;1.92;1.73;;;;;;;;;;5085395;28;20069;-77
2022/11/16 05:29:40;;;;;;;1.95;1.73;;;;;;;;;;5070387;28;20039;-77
2022/11/16 05:32:07;;;;;;;2.90;2.00;;;;;;;;;;5083419;28;20055;-76
2022/11/16 05:34:33;;;;;;;2.80;1.70;;;;;;;;;;5087763;28;20391;-76
2022/11/16 05:36:59;;;;;;;3.72;1.70;;;;;;;;;;5084801;28;20027;-77
2022/11/16 05:39:25;;;;;;;2.10;1.90;;;;;;;;;;5087869;28;20044;-77
2022/11/16 05:41:52;;;;;;;2.10;1.60;;;;;;;;;;5092203;28;20036;-77
2022/11/16 05:44:18;;;;;;;3.13;1.90;;;;;;;;;;5086453;28;20032;-77
2022/11/16 05:46:44;;;;;;;2.70;1.70;;;;;;;;;;5071500;28;20125;-76
2022/11/16 05:49:11;;;;;;;1.65;1.55;;;;;;;;;;5088979;28;20164;-77
2022/11/16 05:51:38;;;;;;;2.00;1.70;;;;;;;;;;5090225;28;20033;-77
2022/11/16 05:54:04;;;;;;;2.83;1.70;;;;;;;;;;5092639;28;20020;-76
2022/11/16 05:56:30;;;;;;;5.28;1.98;;;;;;;;;;5076792;28;20077;-77
2022/11/16 05:58:57;;;;;;;2.05;1.83;;;;;;;;;;5089437;28;20016;-77
2022/11/16 06:01:23;;;;;;;2.00;1.80;;;;;;;;;;5088750;28;20031;-76
2022/11/16 06:03:50;;;;;;;3.15;2.42;;;;;;;;;;5069356;28;20074;-77
2022/11/16 06:06:16;;;;;;;2.22;2.05;;;;;;;;;;5087855;28;20111;-77
2022/11/16 06:08:42;;;;;;;1.70;1.60;;;;;;;;;;5067553;28;20024;-76
2022/11/16 06:11:09;;;;;;;1.83;1.73;;;;;;;;;;5080914;28;20032;-76
2022/11/16 06:13:35;;;;;;;2.70;1.92;;;;;;;;;;5080791;28;20107;-77
2022/11/16 06:16:01;;;;;;;2.13;1.80;;;;;;;;;;5081186;28;20035;-77
2022/11/16 06:18:28;;;;;;;2.63;1.77;;;;;;;;;;5077478;28;20311;-77
2022/11/16 06:20:54;;;;;;;1.83;1.73;;;;;;;;;;5064594;28;20158;-76
2022/11/16 06:23:20;;;;;;;2.08;1.70;;;;;;;;;;5091633;28;20470;-77
2022/11/16 06:25:46;;;;;;;4.20;1.80;;;;;;;;;;5067896;28;20038;-77
2022/11/16 06:28:13;;;;;;;1.70;1.60;;;;;;;;;;5087004;28;20089;-77
2022/11/16 06:30:40;;;;;;;3.00;2.05;;;;;;;;;;5087698;28;20066;-77
2022/11/16 06:33:06;;;;;;;3.00;2.40;;;;;;;;;;5093388;28;20505;-77
2022/11/16 06:35:32;;;;;;;2.40;2.20;;;;;;;;;;5084597;28;20044;-78
2022/11/16 06:37:58;;;;;;;2.90;2.47;;;;;;;;;;5082744;28;20032;-77
2022/11/16 06:40:24;;;;;;;2.85;1.92;;;;;;;;;;5090402;28;20031;-77
2022/11/16 06:42:50;;;;;;;2.20;2.00;;;;;;;;;;5067609;28;20062;-78
2022/11/16 06:45:17;;;;;;;3.28;2.30;;;;;;;;;;5086080;28;20024;-77
2022/11/16 06:47:43;;;;;;;4.20;2.15;;;;;;;;;;5079353;28;20077;-78
2022/11/16 06:50:10;;;;;;;2.10;1.90;;;;;;;;;;5092898;28;20043;-78
2022/11/16 06:52:36;;;;;;;3.10;2.47;;;;;;;;;;5076165;28;20028;-78
2022/11/16 06:55:02;;;;;;;3.85;2.53;;;;;;;;;;5098451;28;20144;-78
2022/11/16 06:57:28;;;;;;;3.20;2.15;;;;;;;;;;5084696;28;20116;-78
2022/11/16 06:59:54;;;;;;;2.25;2.00;;;;;;;;;;5099336;28;20031;-78
2022/11/16 07:02:21;;;;;;;3.53;1.95;;;;;;;;;;5095766;28;20482;-78
2022/11/16 07:04:48;;;;;;;2.45;2.00;;;;;;;;;;5092878;28;20035;-78
2022/11/16 07:07:15;;;;;;;2.13;1.92;;;;;;;;;;5094125;28;20026;-78
2022/11/16 07:09:43;;;;;;;2.10;1.90;;;;;;;;;;5096030;28;20265;-77
2022/11/16 07:12:09;;;;;;;3.60;2.90;;;;;;;;;;5094003;28;20023;-78
2022/11/16 07:14:35;;;;;;;18.48;2.50;;;;;;;;;;5096852;28;20469;-78
2022/11/16 07:17:01;;;;;;;2.97;2.40;;;;;;;;;;5100027;28;20116;-79
2022/11/16 07:19:27;;;;;;;4.38;2.72;;;;;;;;;;5093819;28;20032;-78
2022/11/16 07:21:53;;;;;;;2.67;2.47;;;;;;;;;;5089720;28;20029;-78
2022/11/16 07:24:19;;;;;;;2.58;2.33;;;;;;;;;;5094621;28;20027;-78
2022/11/16 07:26:46;;;;;;;3.10;2.28;;;;;;;;;;5094714;28;20027;-77
2022/11/16 07:29:12;;;;;;;7.50;2.72;;;;;;;;;;5093541;28;20035;-78
2022/11/16 07:31:38;;;;;;;4.15;3.10;;;;;;;;;;5074525;28;20044;-77
2022/11/16 07:34:04;;;;;;;3.08;2.78;;;;;;;;;;5096511;28;20424;-78
2022/11/16 07:36:31;;;;;;;7.72;3.33;;;;;;;;;;5094918;28;20031;-77
2022/11/16 07:38:57;;;;;;;10.52;3.22;;;;;;;;;;5094005;28;20108;-77
2022/11/16 07:41:23;;;;;;;6.72;2.80;;;;;;;;;;5091258;28;20166;-78
2022/11/16 07:43:49;;;;;;;2.90;2.60;;;;;;;;;;5092626;28;20472;-78
2022/11/16 07:46:16;;;;;;;5.38;2.60;;;;;;;;;;5091788;28;20070;-78
2022/11/16 07:48:43;;;;;;;4.95;2.78;;;;;;;;;;5091757;28;20393;-78
2022/11/16 07:51:10;;;;;;;8.52;3.35;;;;;;;;;;5089837;28;20075;-77
2022/11/16 07:53:36;;;;;;;5.63;3.22;;;;;;;;;;5088173;28;20106;-78
2022/11/16 07:56:06;;;;;;;6.82;2.95;;;;;;;;;;5090431;28;20032;-76
2022/11/16 07:58:33;;;;;;;5.57;3.10;;;;;;;;;;5090572;28;20017;-77
2022/11/16 08:01:06;;;;;;;5.78;3.25;;;;;;;;;;5071181;28;20189;-77
2022/11/16 08:03:33;;;;;;;3.95;2.80;;;;;;;;;;5078143;28;20028;-78
2022/11/16 08:05:59;;;;;;;4.40;2.50;;;;;;;;;;5090075;28;20305;-78
2022/11/16 08:08:26;;;;;;;5.20;2.22;;;;;;;;;;5080311;28;20474;-76
2022/11/16 08:10:52;;;;;;;4.63;2.55;;;;;;;;;;5089974;28;20447;-77
2022/11/16 08:13:18;;;;;;;4.82;3.08;;;;;;;;;;5092400;28;20474;-77
2022/11/16 08:15:44;;;;;;;4.65;3.38;;;;;;;;;;5087807;28;20047;-78
2022/11/16 08:18:10;;;;;;;5.03;3.30;;;;;;;;;;5085943;28;20535;-76
2022/11/16 08:20:36;;;;;;;4.13;2.75;;;;;;;;;;5070653;28;20037;-76
2022/11/16 08:23:02;;;;;;;3.92;3.15;;;;;;;;;;5086501;28;20058;-77
2022/11/16 08:25:29;;;;;;;3.58;2.78;;;;;;;;;;5082625;28;20032;-77
2022/11/16 08:27:55;;;;;;;5.82;2.58;;;;;;;;;;5089749;28;20036;-77
2022/11/16 08:30:21;;;;;;;3.28;2.90;;;;;;;;;;5089675;28;20089;-77
2022/11/16 08:32:47;;;;;;;3.03;2.40;;;;;;;;;;5090345;28;20111;-78
2022/11/16 08:35:13;;;;;;;3.85;2.90;;;;;;;;;;5088882;28;20021;-77
2022/11/16 08:37:40;;;;;;;3.28;2.35;;;;;;;;;;5087519;28;20061;-77
2022/11/16 08:40:06;;;;;;;5.97;2.78;;;;;;;;;;5086696;28;20029;-77
2022/11/16 08:42:32;;;;;;;4.47;2.72;;;;;;;;;;5089930;28;20031;-77
2022/11/16 08:44:58;;;;;;;5.28;3.67;;;;;;;;;;5091480;28;20028;-78
2022/11/16 08:47:24;;;;;;;5.78;3.00;;;;;;;;;;5073302;28;20366;-76
2022/11/16 08:49:50;;;;;;;3.33;3.03;;;;;;;;;;5087703;28;20020;-78
2022/11/16 08:52:17;;;;;;;3.10;2.80;;;;;;;;;;5092794;28;20015;-78
2022/11/16 08:54:43;;;;;;;5.00;3.35;;;;;;;;;;5088521;28;20416;-78
2022/11/16 08:57:09;;;;;;;6.00;2.80;;;;;;;;;;5072978;28;20020;-77
2022/11/16 08:59:35;;;;;;;4.28;3.22;;;;;;;;;;5089349;28;20386;-77
2022/11/16 09:02:01;;;;;;;4.30;3.72;;;;;;;;;;5089171;28;20036;-78
2022/11/16 09:04:27;;;;;;;4.40;4.00;;;;;;;;;;5088418;28;20290;-77
2022/11/16 09:06:53;;;;;;;7.57;3.85;;;;;;;;;;5089503;28;20023;-77
2022/11/16 09:09:19;;;;;;;3.85;3.45;;;;;;;;;;5090502;28;20059;-78
2022/11/16 09:11:46;;;;;;;6.10;4.25;;;;;;;;;;5084989;28;20031;-77
2022/11/16 09:14:12;;;;;;;6.88;3.70;;;;;;;;;;5074160;28;20450;-77
2022/11/16 09:16:39;;;;;;;6.78;3.95;;;;;;;;;;5072916;28;20103;-77
2022/11/16 09:19:05;;;;;;;4.60;4.13;;;;;;;;;;5068245;28;20083;-78
2022/11/16 09:21:31;;;;;;;6.88;3.95;;;;;;;;;;5088273;28;20020;-77
2022/11/16 09:23:57;;;;;;;5.18;3.45;;;;;;;;;;5073934;28;20513;-77
2022/11/16 09:26:25;;;;;;;5.97;3.92;;;;;;;;;;5090298;28;20043;-77
2022/11/16 09:28:56;;;;;;;4.47;3.40;;;;;;;;;;5070043;28;20067;-77
2022/11/16 09:31:23;;;;;;;3.60;3.22;;;;;;;;;;5072923;28;20051;-77
2022/11/16 09:33:49;;;;;;;4.18;3.33;;;;;;;;;;5072930;28;20125;-77
2022/11/16 09:36:15;;;;;;;4.43;3.38;;;;;;;;;;5090012;28;20532;-77
2022/11/16 09:38:42;;;;;;;4.00;3.08;;;;;;;;;;5089752;28;20454;-78
2022/11/16 09:41:15;;;;;;;4.40;3.20;;;;;;;;;;5070884;28;20036;-77
2022/11/16 09:43:49;;;;;;;5.53;3.72;;;;;;;;;;5074310;28;20057;-77
2022/11/16 09:46:22;;;;;;;5.20;3.58;;;;;;;;;;5072503;28;20032;-77
2022/11/16 09:48:49;;;;;;;6.53;3.95;;;;;;;;;;5069671;28;20024;-77
2022/11/16 09:51:15;;;;;;;6.30;3.42;;;;;;;;;;5088205;28;20481;-77
2022/11/16 09:53:45;;;;;;;8.02;2.92;;;;;;;;;;5090098;28;20024;-77
2022/11/16 09:56:25;;;;;;;3.47;2.67;;;;;;;;;;5088975;28;20098;-77
2022/11/16 09:59:03;;;;;;;5.53;2.95;;;;;;;;;;5088947;28;20020;-76
2022/11/16 10:01:36;;;;;;;4.55;3.45;;;;;;;;;;5088358;28;20032;-77
2022/11/16 10:04:06;;;;;;;3.42;2.70;;;;;;;;;;5065752;28;20492;-77
2022/11/16 10:06:39;;;;;;;6.82;2.83;;;;;;;;;;5091528;28;20028;-78
2022/11/16 10:09:05;;;;;;;3.70;2.30;;;;;;;;;;5064141;28;20048;-78
2022/11/16 10:11:51;;;;;;;5.95;2.85;;;;;;;;;;5089851;28;20086;-77
2022/11/16 10:14:26;;;;;;;3.40;2.55;;;;;;;;;;5091565;28;20024;-77
2022/11/16 10:17:06;;;;;;;3.15;2.20;;;;;;;;;;5087089;28;20017;-77
2022/11/16 10:19:45;;;;;;;4.35;2.33;;;;;;;;;;5093431;28;20032;-77
2022/11/16 10:22:29;;;;;;;10.18;2.53;;;;;;;;;;5069008;28;20032;-78
2022/11/16 10:24:57;;;;;;;3.10;2.40;;;;;;;;;;5086318;28;20054;-76
2022/11/16 10:27:26;;;;;;;3.85;2.40;;;;;;;;;;5088890;28;20034;-77
2022/11/16 10:29:58;;;;;;;3.65;2.00;;;;;;;;;;5090987;28;20020;-78
2022/11/16 10:32:28;;;;;;;3.25;2.25;;;;;;;;;;5071842;28;20040;-78
2022/11/16 10:35:03;;;;;;;3.17;2.22;;;;;;;;;;5074879;28;20052;-78
2022/11/16 10:37:30;;;;;;;3.45;2.03;;;;;;;;;;5084857;28;20028;-76
2022/11/16 10:39:57;;;;;;;3.67;2.10;;;;;;;;;;5061733;28;20024;-77
2022/11/16 10:42:30;;;;;;;4.90;2.30;;;;;;;;;;5096637;28;20030;-78
2022/11/16 10:45:06;;;;;;;5.18;2.70;;;;;;;;;;5093600;28;20027;-77
2022/11/16 10:47:45;;;;;;;5.03;2.20;;;;;;;;;;5100041;28;20931;-77
2022/11/16 10:50:30;;;;;;;2.83;1.98;;;;;;;;;;5086707;28;20052;-77
2022/11/16 10:52:57;;;;;;;5.28;3.22;;;;;;;;;;5082796;28;20486;-78
2022/11/16 10:55:23;;;;;;;2.55;2.00;;;;;;;;;;5099963;28;20306;-77
2022/11/16 10:57:57;;;;;;;8.80;3.03;;;;;;;;;;5092806;28;20500;-77
2022/11/16 11:00:40;;;;;;;3.03;2.33;;;;;;;;;;5087961;28;20044;-77
2022/11/16 11:03:09;;;;;;;6.97;2.38;;;;;;;;;;5092219;28;20069;-77
2022/11/16 11:05:35;;;;;;;4.82;2.22;;;;;;;;;;5089982;28;20020;-78
2022/11/16 11:08:03;;;;;;;4.55;1.75;;;;;;;;;;5092657;28;20097;-77
2022/11/16 11:10:31;;;;;;;3.22;2.05;;;;;;;;;;5070332;28;20043;-77
2022/11/16 11:13:02;;;;;;;2.67;1.90;;;;;;;;;;5071259;28;20051;-77
2022/11/16 11:15:28;;;;;;;5.03;2.05;;;;;;;;;;5088079;28;20012;-78
2022/11/16 11:18:20;;;;;;;5.38;2.58;;;;;;;;;;5091783;28;20040;-77
2022/11/16 11:20:49;;;;;;;3.28;2.03;;;;;;;;;;5080159;28;20717;-77
2022/11/16 11:23:17;;;;;;;6.90;2.10;;;;;;;;;;5093654;28;20107;-77
2022/11/16 11:25:57;;;;;;;4.53;2.13;;;;;;;;;;5068628;28;20031;-77
2022/11/16 11:28:34;;;;;;;7.25;2.22;;;;;;;;;;5091196;28;20473;-77
2022/11/16 11:31:21;;;;;;;4.50;2.45;;;;;;;;;;5089083;28;20052;-77
2022/11/16 11:33:55;;;;;;;3.13;1.90;;;;;;;;;;5068354;28;20756;-77
2022/11/16 11:36:22;;;;;;;4.60;2.28;;;;;;;;;;5066022;28;20031;-77
2022/11/16 11:38:56;;;;;;;3.17;2.03;;;;;;;;;;5085480;28;20087;-77
2022/11/16 11:41:23;;;;;;;6.97;2.95;;;;;;;;;;5067660;28;20035;-77
2022/11/16 11:44:02;;;;;;;3.20;1.70;;;;;;;;;;5088199;28;20027;-78
2022/11/16 11:46:29;;;;;;;3.75;1.92;;;;;;;;;;5083664;28;20021;-77
2022/11/16 11:49:10;;;;;;;3.97;1.88;;;;;;;;;;5083884;28;20514;-74
2022/11/16 11:51:41;;;;;;;4.15;2.00;;;;;;;;;;5092588;28;20493;-79
2022/11/16 11:54:14;;;;;;;3.28;1.90;;;;;;;;;;5085833;28;20517;-77
2022/11/16 11:56:40;;;;;;;4.55;2.17;;;;;;;;;;5087536;28;20062;-78
2022/11/16 11:59:06;;;;;;;4.05;2.03;;;;;;;;;;5088201;28;20024;-78
2022/11/16 12:01:46;;;;;;;3.08;2.00;;;;;;;;;;5087943;28;20024;-78
2022/11/16 12:04:31;;;;;;;3.25;1.90;;;;;;;;;;5080533;28;20042;-77
2022/11/16 12:07:16;;;;;;;3.70;2.22;;;;;;;;;;5081482;28;20020;-78
2022/11/16 12:09:57;;;;;;;5.72;2.30;;;;;;;;;;5087741;28;20109;-78
2022/11/16 12:12:29;;;;;;;3.00;1.70;;;;;;;;;;5087160;28;20694;-77
2022/11/16 12:14:55;;;;;;;5.05;2.22;;;;;;;;;;5083455;28;20016;-77
2022/11/16 12:17:21;;;;;;;6.88;2.28;;;;;;;;;;5084707;28;20031;-77
2022/11/16 12:20:02;;;;;;;4.10;2.25;;;;;;;;;;5092227;28;20092;-77
2022/11/16 12:22:28;;;;;;;5.07;2.13;;;;;;;;;;5086550;28;20099;-77
2022/11/16 12:24:57;;;;;;;4.05;1.88;;;;;;;;;;5086254;28;20047;-77
2022/11/16 12:27:27;;;;;;;5.05;2.10;;;;;;;;;;5093109;28;20017;-78
2022/11/16 12:30:16;;;;;;;4.93;1.75;;;;;;;;;;5080216;28;20016;-77
2022/11/16 12:32:45;;;;;;;4.88;1.90;;;;;;;;;;5093598;28;20592;-77
2022/11/16 12:35:11;;;;;;;5.60;2.10;;;;;;;;;;5095343;28;20028;-78
2022/11/16 12:37:40;;;;;;;3.13;1.85;;;;;;;;;;5086544;28;20016;-77
2022/11/16 12:40:25;;;;;;;6.95;2.25;;;;;;;;;;5085034;28;20588;-78
2022/11/16 12:42:51;;;;;;;;;;;;;;;;;;5069623;28;20024;-78
2022/11/16 12:45:22;;;;;;;6.65;3.85;;;;;;;;;;5089474;28;19907;-78
2022/11/16 12:48:00;;;;;;;4.70;2.58;;;;;;;;;;5089253;28;20027;-77
2022/11/16 12:50:26;;;;;;;5.18;2.28;;;;;;;;;;5089197;28;20420;-77
2022/11/16 12:52:52;;;;;;;4.32;2.30;;;;;;;;;;5089271;28;20024;-79
2022/11/16 12:55:37;;;;;;;4.63;1.90;;;;;;;;;;5103076;28;20436;-76
2022/11/16 12:58:10;;;;;;;5.80;2.40;;;;;;;;;;5089712;28;20081;-77
2022/11/16 13:00:58;;;;;;;4.13;2.00;;;;;;;;;;5091481;28;20505;-77
2022/11/16 13:03:30;;;;;;;3.90;2.05;;;;;;;;;;5086348;28;20027;-77
2022/11/16 13:06:07;;;;;;;4.00;2.40;;;;;;;;;;5091359;28;20088;-78
2022/11/16 13:08:33;;;;;;;5.80;2.25;;;;;;;;;;5098325;28;20031;-77
2022/11/16 13:11:07;;;;;;;7.07;2.78;;;;;;;;;;5093266;28;20024;-76
2022/11/16 13:13:33;;;;;;;9.10;4.43;;;;;;;;;;5073210;28;20027;-77
2022/11/16 13:16:00;;;;;;;4.03;2.75;;;;;;;;;;5089044;28;20453;-75
2022/11/16 13:18:27;;;;;;;6.70;2.58;;;;;;;;;;5091397;28;20028;-75
2022/11/16 13:20:56;;;;;;;6.30;2.88;;;;;;;;;;5087298;28;20016;-77
2022/11/16 13:23:28;;;;;;;6.57;3.70;;;;;;;;;;5071723;28;20515;-76
2022/11/16 13:26:14;;;;;;;14.35;6.65;;;;;;;;;;5090734;28;20073;-75
2022/11/16 13:28:49;;;;;;;7.05;4.50;;;;;;;;;;5049273;28;20051;-77
2022/11/16 13:31:15;;;;;;;;;;;;;;;;;;5086849;28;20067;-77
2022/11/16 13:33:48;;;;;;;8.18;3.25;;;;;;;;;;5089790;28;19982;-77
2022/11/16 13:36:33;;;;;;;6.68;2.70;;;;;;;;;;5090147;28;20032;-77
2022/11/16 13:38:59;;;;;;;7.78;3.33;;;;;;;;;;5086904;28;20536;-75
2022/11/16 13:41:28;;;;;;;5.47;3.25;;;;;;;;;;5087027;28;20117;-78
2022/11/16 13:43:54;;;;;;;7.50;2.47;;;;;;;;;;5089993;28;20024;-75
2022/11/16 13:46:20;;;;;;;4.75;2.70;;;;;;;;;;5090615;28;20026;-78
2022/11/16 13:48:47;;;;;;;13.75;8.02;;;;;;;;;;5064136;28;20039;-77
2022/11/16 13:51:18;;;;;;;8.88;5.10;;;;;;;;;;5089678;28;20298;-76
2022/11/16 13:53:49;;;;;;;11.82;8.50;;;;;;;;;;5090060;28;20497;-78
2022/11/16 13:56:16;;;;;;;9.40;4.43;;;;;;;;;;5093084;28;20024;-76
2022/11/16 13:58:55;;;;;;;4.63;2.67;;;;;;;;;;5090106;28;20048;-75
2022/11/16 14:01:22;;;;;;;7.22;3.55;;;;;;;;;;5085013;28;20035;-75
2022/11/16 14:03:52;;;;;;;4.60;2.60;;;;;;;;;;5091026;28;20016;-75
2022/11/16 14:06:24;;;;;;;5.22;2.53;;;;;;;;;;5085039;28;21395;-76
2022/11/16 14:08:51;;;;;;;5.25;3.78;;;;;;;;;;5061546;28;20431;-75
2022/11/16 14:11:25;;;;;;;7.60;4.25;;;;;;;;;;5087582;28;20030;-78
2022/11/16 14:13:52;;;;;;;4.70;3.63;;;;;;;;;;5087920;28;20043;-75
2022/11/16 14:16:21;;;;;;;7.45;3.22;;;;;;;;;;5090545;28;20027;-78
2022/11/16 14:18:54;;;;;;;4.72;2.70;;;;;;;;;;5084059;28;20020;-77
2022/11/16 14:21:39;;;;;;;4.75;2.88;;;;;;;;;;5081164;28;20039;-77
2022/11/16 14:24:24;;;;;;;3.80;2.08;;;;;;;;;;5084636;28;20428;-76
2022/11/16 14:26:50;;;;;;;;;;;;;;;;;;5089786;28;20057;-76
2022/11/16 14:29:18;;;;;;;4.78;2.70;;;;;;;;;;5084750;28;20234;-75
2022/11/16 14:31:52;;;;;;;5.22;2.30;;;;;;;;;;5089954;28;20375;-76
2022/11/16 14:34:31;;;;;;;6.13;2.67;;;;;;;;;;5089512;28;20024;-75
2022/11/16 14:36:58;;;;;;;4.47;2.80;;;;;;;;;;5088427;28;20028;-75
2022/11/16 14:39:36;;;;;;;4.28;2.30;;;;;;;;;;5090300;28;20032;-78
2022/11/16 14:42:16;;;;;;;6.78;2.90;;;;;;;;;;5092497;28;20028;-75
2022/11/16 14:44:43;;;;;;;4.80;2.45;;;;;;;;;;5086971;28;20048;-78
2022/11/16 14:47:25;;;;;;;4.72;2.40;;;;;;;;;;5087178;28;20028;-77
2022/11/16 14:49:52;;;;;;;3.80;1.90;;;;;;;;;;5094535;28;20090;-78
2022/11/16 14:52:20;;;;;;;6.32;2.90;;;;;;;;;;5087678;28;20024;-77
2022/11/16 14:54:48;;;;;;;6.43;2.33;;;;;;;;;;5088066;28;20031;-79
2022/11/16 14:57:21;;;;;;;7.15;2.42;;;;;;;;;;5075710;28;20405;-79
2022/11/16 14:59:47;;;;;;;5.90;3.05;;;;;;;;;;5070086;28;20026;-78
2022/11/16 15:02:23;;;;;;;7.68;2.50;;;;;;;;;;5070084;28;20479;-77
2022/11/16 15:04:50;;;;;;;6.68;3.65;;;;;;;;;;5092654;28;20035;-75
2022/11/16 15:07:17;;;;;;;7.65;2.80;;;;;;;;;;5096555;28;20035;-78
2022/11/16 15:09:50;;;;;;;6.20;2.85;;;;;;;;;;5087636;28;20110;-77
2022/11/16 15:15:22;;;;;;;3.95;2.10;;;;;;;;;;5088657;28;20047;-76
2022/11/16 15:18:05;;;;;;;4.43;2.97;;;;;;;;;;5088019;28;20020;-77
2022/11/16 15:20:32;;;;;;;7.35;2.75;;;;;;;;;;5068048;28;20639;-78
2022/11/16 15:23:00;;;;;;;7.28;2.88;;;;;;;;;;5071937;28;20035;-77
2022/11/16 15:25:29;;;;;;;6.75;2.97;;;;;;;;;;5085337;28;20024;-77
2022/11/16 15:27:56;;;;;;;3.85;2.85;;;;;;;;;;5084143;28;20016;-77
2022/11/16 15:30:26;;;;;;;4.97;2.47;;;;;;;;;;5080947;28;20079;-77
2022/11/16 15:32:53;;;;;;;2.95;2.28;;;;;;;;;;5085793;28;20059;-77
2022/11/16 15:35:23;;;;;;;4.95;2.60;;;;;;;;;;5083943;28;20475;-77
2022/11/16 15:38:07;;;;;;;5.97;2.28;;;;;;;;;;5085798;28;20096;-77
2022/11/16 15:40:33;;;;;;;4.43;3.45;;;;;;;;;;5088861;28;20051;-77
2022/11/16 15:43:00;;;;;;;9.07;3.78;;;;;;;;;;5084716;28;20024;-77